createdAt,value
2022-11-10T00:04:28.869Z,97069.06
2022-11-10T00:10:08.511Z,97068.25
2022-11-10T00:16:06.714Z,97075.47
2022-11-10T00:21:46.122Z,97074.75
2022-11-10T00:27:25.287Z,97070.28
2022-11-10T00:33:04.968Z,97070.97
2022-11-10T00:38:44.289Z,97071.09
2022-11-10T00:44:23.468Z,97077.34
2022-11-10T00:50:02.853Z,97094.94
2022-11-10T00:55:42.300Z,97095.09
2022-11-10T01:01:24.331Z,97100.50
2022-11-10T01:07:04.228Z,97099.44
2022-11-10T01:12:44.005Z,97111.72
2022-11-10T01:18:23.486Z,97111.97
2022-11-10T01:24:03.188Z,97115.38
2022-11-10T01:29:42.755Z,97112.56
2022-11-10T01:35:22.250Z,97112.31
2022-11-10T01:41:02.234Z,97111.84
2022-11-10T01:46:41.677Z,97117.16
2022-11-10T01:52:21.393Z,97116.22
2022-11-10T01:58:00.685Z,97128.41
2022-11-10T02:03:46.216Z,97137.00
2022-11-10T02:09:25.568Z,97136.44
2022-11-10T02:15:06.276Z,97135.13
2022-11-10T02:20:45.841Z,97134.41
2022-11-10T02:26:29.237Z,97147.75
2022-11-10T02:32:08.890Z,97148.34
2022-11-10T02:37:48.519Z,97153.31
2022-11-10T02:43:28.600Z,97155.22
2022-11-10T02:49:08.223Z,97159.25
2022-11-10T02:54:47.833Z,97169.31
2022-11-10T03:00:27.013Z,97187.84
2022-11-10T03:06:06.399Z,97203.00
2022-11-10T03:11:45.734Z,97207.34
2022-11-10T03:17:25.679Z,97211.03
2022-11-10T03:23:05.711Z,97217.88
2022-11-10T03:28:45.188Z,97230.53
2022-11-10T03:34:27.031Z,97222.50
2022-11-10T03:40:10.166Z,97229.59
2022-11-10T03:45:49.316Z,97239.63
2022-11-10T03:51:28.699Z,97239.28
2022-11-10T03:57:07.849Z,97224.97
2022-11-10T04:02:46.950Z,97242.00
2022-11-10T04:08:45.009Z,97244.72
2022-11-10T04:14:43.082Z,97247.56
2022-11-10T04:20:22.752Z,97261.97
2022-11-10T04:26:24.443Z,97263.75
2022-11-10T04:32:04.055Z,97265.88
2022-11-10T04:37:43.538Z,97266.63
2022-11-10T04:43:23.175Z,97273.94
2022-11-10T04:49:02.955Z,97284.31
2022-11-10T04:54:42.360Z,97304.50
2022-11-10T05:00:21.804Z,97301.81
2022-11-10T05:06:01.363Z,97311.16
2022-11-10T05:11:40.972Z,97324.50
2022-11-10T05:17:20.442Z,97337.16
2022-11-10T05:23:18.763Z,97338.00
2022-11-10T05:28:58.056Z,97342.72
2022-11-10T05:34:37.496Z,97352.31
2022-11-10T05:40:16.998Z,97365.19
2022-11-10T05:45:56.528Z,97364.75
2022-11-10T05:51:35.638Z,97379.63
2022-11-10T05:57:14.923Z,97385.06
2022-11-10T06:03:20.988Z,97395.59
2022-11-10T06:09:00.520Z,97416.69
2022-11-10T06:14:39.818Z,97421.25
2022-11-10T06:20:19.466Z,97439.88
2022-11-10T06:25:58.870Z,97443.53
2022-11-10T06:31:38.026Z,97456.03
2022-11-10T06:37:17.406Z,97461.56
2022-11-10T06:42:57.031Z,97475.09
2022-11-10T06:48:36.300Z,97482.63
2022-11-10T06:54:15.812Z,97489.28
2022-11-10T06:59:55.188Z,97506.59
2022-11-10T07:05:35.164Z,97508.28
2022-11-10T07:11:14.932Z,97529.53
2022-11-10T07:16:54.455Z,97524.47
2022-11-10T07:22:33.721Z,97541.47
2022-11-10T07:28:13.077Z,97549.00
2022-11-10T07:33:54.601Z,97557.34
2022-11-10T07:39:34.141Z,97556.72
2022-11-10T07:45:13.819Z,97570.06
2022-11-10T07:50:53.511Z,97585.03
2022-11-10T07:56:32.989Z,97596.66
2022-11-10T08:02:12.449Z,97608.84
2022-11-10T08:07:52.938Z,97612.09
2022-11-10T08:13:32.634Z,97630.56
2022-11-10T08:19:12.339Z,97633.47
2022-11-10T08:24:51.445Z,97651.13
2022-11-10T08:30:30.923Z,97647.25
2022-11-10T08:36:10.230Z,97659.06
2022-11-10T08:41:49.416Z,97673.69
2022-11-10T08:47:28.412Z,97686.03
2022-11-10T08:53:12.395Z,97695.69
2022-11-10T08:58:53.512Z,97699.28
2022-11-10T09:04:32.819Z,97715.75
2022-11-10T09:10:13.436Z,97722.19
2022-11-10T09:15:52.716Z,97737.38
2022-11-10T09:21:31.828Z,97750.56
2022-11-10T09:27:11.606Z,97749.31
2022-11-10T09:32:57.587Z,97754.66
2022-11-10T09:38:37.116Z,97766.53
2022-11-10T09:44:22.245Z,97762.13
2022-11-10T09:50:02.601Z,97764.75
2022-11-10T09:55:45.150Z,97777.78
2022-11-10T10:01:30.527Z,97778.50
2022-11-10T10:07:15.354Z,97783.72
2022-11-10T10:13:01.670Z,97780.03
2022-11-10T10:19:07.294Z,97781.91
2022-11-10T10:24:48.174Z,97783.25
2022-11-10T10:30:27.432Z,97788.34
2022-11-10T10:36:15.239Z,97792.09
2022-11-10T10:41:54.341Z,97799.34
2022-11-10T10:47:40.311Z,97782.66
2022-11-10T10:53:28.735Z,97789.41
2022-11-10T10:59:17.183Z,97795.31
2022-11-10T11:05:15.049Z,97804.94
2022-11-10T11:10:54.403Z,97799.94
2022-11-10T11:16:45.794Z,97797.22
2022-11-10T11:22:37.588Z,97800.16
2022-11-10T11:28:20.045Z,97814.69
2022-11-10T11:34:02.236Z,97802.84
2022-11-10T11:39:57.028Z,97818.84
2022-11-10T11:45:42.216Z,97816.66
2022-11-10T11:51:27.021Z,97808.97
2022-11-10T11:57:25.161Z,97801.16
2022-11-10T12:03:10.409Z,97816.00
2022-11-10T12:09:09.288Z,97820.53
2022-11-10T12:15:04.005Z,97828.13
2022-11-10T12:21:02.076Z,97831.59
2022-11-10T12:26:47.316Z,97824.53
2022-11-10T12:32:29.393Z,97825.13
2022-11-10T12:38:13.812Z,97836.19
2022-11-10T12:43:56.168Z,97840.53
2022-11-10T12:49:36.789Z,97843.25
2022-11-10T12:55:16.000Z,97848.25
2022-11-10T13:01:04.974Z,97848.25
2022-11-10T13:06:49.658Z,97848.03
2022-11-10T13:12:29.009Z,97857.06
2022-11-10T13:18:22.196Z,97862.66
2022-11-10T13:24:02.689Z,97868.59
2022-11-10T13:29:48.060Z,97869.28
2022-11-10T13:35:30.550Z,97872.75
2022-11-10T13:41:14.030Z,97869.72
2022-11-10T13:47:04.375Z,97882.38
2022-11-10T13:53:01.761Z,97883.38
2022-11-10T13:58:43.478Z,97883.44
2022-11-10T14:04:41.777Z,97890.91
2022-11-10T14:10:29.790Z,97893.66
2022-11-10T14:16:19.657Z,97903.88
2022-11-10T14:22:01.043Z,97907.81
2022-11-10T14:27:40.566Z,97910.63
2022-11-10T14:33:21.116Z,97927.75
2022-11-10T14:39:00.969Z,97931.44
2022-11-10T14:44:40.527Z,97939.41
2022-11-10T14:50:32.164Z,97949.84
2022-11-10T14:56:17.814Z,97958.50
2022-11-10T15:01:59.052Z,97954.22
2022-11-10T15:07:38.746Z,97962.38
2022-11-10T15:13:27.529Z,97973.03
2022-11-10T15:19:25.718Z,97983.47
2022-11-10T15:25:18.861Z,97987.38
2022-11-10T15:31:09.820Z,97980.63
2022-11-10T15:36:49.094Z,97982.63
2022-11-10T15:42:28.710Z,97996.00
2022-11-10T15:48:15.115Z,98000.44
2022-11-10T15:53:54.630Z,98023.94
2022-11-10T15:59:34.132Z,98029.28
2022-11-10T16:05:13.485Z,98038.78
2022-11-10T16:10:53.856Z,98037.72
2022-11-10T16:16:33.507Z,98045.06
2022-11-10T16:22:13.490Z,98055.78
2022-11-10T16:27:52.833Z,98067.16
2022-11-10T16:33:32.326Z,98070.09
2022-11-10T16:39:15.694Z,98066.97
2022-11-10T16:44:55.036Z,98077.16
2022-11-10T16:50:35.848Z,98092.75
2022-11-10T16:56:16.347Z,98097.88
2022-11-10T17:01:57.253Z,98111.13
2022-11-10T17:07:37.114Z,98120.72
2022-11-10T17:13:16.906Z,98122.06
2022-11-10T17:18:57.900Z,98148.88
2022-11-10T17:24:36.987Z,98141.66
2022-11-10T17:30:16.402Z,98148.00
2022-11-10T17:35:56.807Z,98146.97
2022-11-10T17:41:36.382Z,98141.88
2022-11-10T17:47:15.916Z,98136.75
2022-11-10T17:52:55.219Z,98144.75
2022-11-10T17:58:36.006Z,98151.59
2022-11-10T18:04:15.839Z,98158.91
2022-11-10T18:09:55.367Z,98162.97
2022-11-10T18:15:34.746Z,98164.19
2022-11-10T18:21:14.384Z,98170.47
2022-11-10T18:26:53.788Z,98155.75
2022-11-10T18:32:33.262Z,98149.75
2022-11-10T18:38:13.540Z,98162.47
2022-11-10T18:43:53.088Z,98166.84
2022-11-10T18:49:33.765Z,98168.53
2022-11-10T18:55:13.122Z,98172.22
2022-11-10T19:00:52.235Z,98167.41
2022-11-10T19:06:31.721Z,98167.03
2022-11-10T19:12:12.114Z,98172.91
2022-11-10T19:17:51.583Z,98169.56
2022-11-10T19:23:30.778Z,98188.50
2022-11-10T19:29:10.213Z,98192.91
2022-11-10T19:34:49.603Z,98206.53
2022-11-10T19:40:29.054Z,98234.63
2022-11-10T19:46:10.412Z,98245.34
2022-11-10T19:51:50.534Z,98256.75
2022-11-10T19:57:29.929Z,98253.13
2022-11-10T20:03:11.544Z,98254.81
2022-11-10T20:08:51.137Z,98262.00
2022-11-10T20:14:30.800Z,98266.28
2022-11-10T20:20:11.201Z,98271.41
2022-11-10T20:26:00.699Z,98275.88
2022-11-10T20:31:40.076Z,98280.31
2022-11-10T20:37:19.497Z,98272.63
2022-11-10T20:42:58.582Z,98270.84
2022-11-10T20:48:38.524Z,98276.97
2022-11-10T20:54:17.765Z,98283.56
2022-11-10T20:59:57.031Z,98272.97
2022-11-10T21:05:36.152Z,98278.47
2022-11-10T21:11:35.447Z,98279.94
2022-11-10T21:17:14.623Z,98281.34
2022-11-10T21:22:56.008Z,98284.88
2022-11-10T21:28:38.666Z,98295.13
2022-11-10T21:34:18.100Z,98298.91
2022-11-10T21:39:57.390Z,98298.47
2022-11-10T21:45:37.920Z,98310.16
2022-11-10T21:51:19.761Z,98305.75
2022-11-10T21:56:59.278Z,98295.19
2022-11-10T22:02:38.822Z,98299.75
2022-11-10T22:08:21.740Z,98297.94
2022-11-10T22:14:20.023Z,98286.16
2022-11-10T22:19:59.504Z,98277.47
2022-11-10T22:25:39.323Z,98280.19
2022-11-10T22:31:18.575Z,98286.25
2022-11-10T22:36:59.584Z,98298.06
2022-11-10T22:43:08.893Z,98294.22
2022-11-10T22:48:48.520Z,98292.03
2022-11-10T22:54:27.681Z,98282.50
2022-11-10T23:00:08.806Z,98276.78
2022-11-10T23:05:55.874Z,98273.44
2022-11-10T23:11:36.148Z,98280.66
2022-11-10T23:17:15.925Z,98281.09
2022-11-10T23:22:56.353Z,98289.34
2022-11-10T23:28:36.085Z,98284.84
2022-11-10T23:34:15.611Z,98283.84
2022-11-10T23:39:55.141Z,98291.63
2022-11-10T23:46:04.795Z,98295.06
2022-11-10T23:51:33.601Z,98307.34
2022-11-10T23:57:12.705Z,98305.78
